Time;durP1;ratioP1;P1;durP2;ratioP2;P2;SDS_P1;SDS_P2;PMS_P1;PMS_P2;Temp;Humidity;BMP_temperature;BMP_pressure;BME280_temperature;BME280_humidity;BME280_pressure;Samples;Min_cycle;Max_cycle;Signal;HPM_P1;HPM_P2
2021/08/29 00:00:20;;;;;;;5.13;2.50;;;16.40;99.90;;;;;;4374240;32;20255;-61
2021/08/29 00:02:47;;;;;;;8.53;3.10;;;16.40;99.90;;;;;;4370353;32;20231;-60
2021/08/29 00:05:14;;;;;;;8.67;3.53;;;16.50;99.90;;;;;;4360506;32;20163;-61
2021/08/29 00:07:43;;;;;;;5.60;2.60;;;16.40;99.90;;;;;;4374088;32;20171;-60
2021/08/29 00:10:10;;;;;;;12.70;3.50;;;16.40;99.90;;;;;;4375207;32;20246;-61
2021/08/29 00:12:49;;;;;;;4.70;3.07;;;16.40;99.90;;;;;;4366934;32;20538;-60
2021/08/29 00:15:23;;;;;;;4.77;2.50;;;16.40;99.90;;;;;;4372433;32;20264;-60
2021/08/29 00:17:50;;;;;;;9.40;2.90;;;16.50;99.90;;;;;;4369642;32;20262;-60
2021/08/29 00:20:17;;;;;;;6.27;3.20;;;16.50;99.90;;;;;;4375059;32;20152;-61
2021/08/29 00:22:44;;;;;;;7.57;3.33;;;16.50;99.90;;;;;;4381778;32;20235;-61
2021/08/29 00:27:52;;;;;;;6.70;2.90;;;16.50;99.90;;;;;;4374435;32;20264;-61
2021/08/29 00:30:19;;;;;;;9.33;3.63;;;16.60;99.90;;;;;;4376984;32;20212;-62
2021/08/29 00:32:52;;;;;;;6.97;3.20;;;16.60;99.90;;;;;;4372581;32;20253;-60
2021/08/29 00:35:33;;;;;;;8.63;3.00;;;16.60;99.90;;;;;;4374233;32;20203;-61
2021/08/29 00:38:00;;;;;;;5.83;3.37;;;16.60;99.90;;;;;;4377149;32;20192;-61
2021/08/29 00:40:27;;;;;;;7.40;3.50;;;16.50;99.90;;;;;;4374440;32;20186;-60
2021/08/29 00:42:54;;;;;;;6.80;3.67;;;16.50;99.90;;;;;;4371992;32;20294;-61
2021/08/29 00:45:21;;;;;;;11.77;4.33;;;16.60;99.90;;;;;;4373034;32;20232;-61
2021/08/29 00:47:51;;;;;;;13.00;4.33;;;16.50;99.90;;;;;;4375071;32;20596;-61
2021/08/29 00:50:18;;;;;;;9.23;3.83;;;16.50;99.90;;;;;;4380589;32;20211;-61
2021/08/29 00:52:45;;;;;;;7.23;3.17;;;16.50;99.90;;;;;;4381959;32;20227;-62
2021/08/29 00:55:13;;;;;;;7.17;3.83;;;16.60;99.90;;;;;;4382879;32;20245;-61
2021/08/29 00:57:41;;;;;;;8.50;2.93;;;16.60;99.90;;;;;;4389319;32;20210;-62
2021/08/29 01:00:09;;;;;;;6.57;3.57;;;16.60;99.90;;;;;;4385257;32;20190;-61
2021/08/29 01:02:37;;;;;;;10.63;3.37;;;16.60;99.90;;;;;;4380050;32;20172;-61
2021/08/29 01:05:26;;;;;;;14.83;4.33;;;16.50;99.90;;;;;;4378154;32;20215;-61
2021/08/29 01:10:48;;;;;;;11.00;3.37;;;16.50;99.90;;;;;;4361587;32;20248;-61
2021/08/29 01:13:34;;;;;;;8.67;3.80;;;16.50;99.90;;;;;;4367799;32;20300;-61
2021/08/29 01:16:03;;;;;;;9.07;3.90;;;16.50;99.90;;;;;;4367384;32;20245;-61
2021/08/29 01:18:31;;;;;;;7.17;3.50;;;16.50;99.90;;;;;;4383005;32;20195;-61
2021/08/29 01:21:03;;;;;;;8.37;3.60;;;16.50;99.90;;;;;;4377226;32;20600;-61
2021/08/29 01:23:33;;;;;;;9.40;3.90;;;16.60;99.90;;;;;;4374004;32;20334;-61
2021/08/29 01:26:18;;;;;;;6.60;3.40;;;16.60;99.90;;;;;;4375994;32;20217;-61
2021/08/29 01:28:54;;;;;;;11.50;3.47;;;16.60;99.90;;;;;;4378467;32;20218;-61
2021/08/29 01:31:21;;;;;;;9.40;4.03;;;16.60;99.90;;;;;;4372928;32;20247;-62
2021/08/29 01:33:51;;;;;;;11.50;4.30;;;16.60;99.90;;;;;;4374199;32;20155;-61
2021/08/29 01:36:22;;;;;;;7.73;3.30;;;16.60;99.90;;;;;;4371738;32;20227;-61
2021/08/29 01:38:51;;;;;;;6.07;3.57;;;16.60;99.90;;;;;;4368956;32;20282;-62
2021/08/29 01:41:27;;;;;;;11.00;3.77;;;16.60;99.90;;;;;;4370630;32;20222;-61
2021/08/29 01:44:04;;;;;;;7.53;3.37;;;16.60;99.90;;;;;;4371208;32;20575;-61
2021/08/29 01:46:32;;;;;;;4.73;3.27;;;16.60;99.90;;;;;;4373598;32;20217;-61
2021/08/29 01:49:00;;;;;;;6.33;3.20;;;16.60;99.90;;;;;;4375829;32;20512;-62
2021/08/29 01:51:26;;;;;;;5.67;3.37;;;16.60;99.90;;;;;;4382787;32;20215;-62
2021/08/29 01:53:53;;;;;;;9.50;3.50;;;16.60;99.90;;;;;;4381191;32;20228;-61
2021/08/29 01:56:20;;;;;;;11.80;3.63;;;16.60;99.90;;;;;;4381630;32;20195;-61
2021/08/29 01:58:50;;;;;;;9.27;3.63;;;16.60;99.90;;;;;;4379547;32;20171;-61
2021/08/29 02:01:19;;;;;;;4.47;3.13;;;16.50;99.90;;;;;;4372968;32;20218;-61
2021/08/29 02:03:47;;;;;;;6.30;3.93;;;16.60;99.90;;;;;;4288939;32;3301474;-61
2021/08/29 02:06:18;;;;;;;6.60;3.57;;;16.60;99.90;;;;;;4388226;32;20222;-62
2021/08/29 02:08:48;;;;;;;5.20;2.90;;;16.60;99.90;;;;;;4388070;32;20466;-61
2021/08/29 02:11:17;;;;;;;7.53;3.50;;;16.60;99.90;;;;;;4385605;32;20507;-62
2021/08/29 02:13:44;;;;;;;6.47;3.50;;;16.60;99.90;;;;;;4387543;32;20596;-61
2021/08/29 02:16:14;;;;;;;6.87;3.63;;;16.50;99.90;;;;;;4382423;32;20217;-61
2021/08/29 02:18:44;;;;;;;4.87;3.10;;;16.50;99.90;;;;;;4383244;32;20215;-62
2021/08/29 02:21:12;;;;;;;6.27;3.50;;;16.50;99.90;;;;;;4378799;32;20999;-60
2021/08/29 02:23:40;;;;;;;8.93;3.30;;;16.50;99.90;;;;;;4380873;32;20179;-61
2021/08/29 02:26:09;;;;;;;7.47;3.33;;;16.50;99.90;;;;;;4366773;32;20163;-61
2021/08/29 02:28:36;;;;;;;9.33;3.77;;;16.50;99.90;;;;;;4381547;32;20199;-61
2021/08/29 02:31:03;;;;;;;7.17;3.40;;;16.40;99.90;;;;;;4377773;32;20222;-61
2021/08/29 02:33:30;;;;;;;7.77;3.10;;;16.40;99.90;;;;;;4376705;32;20187;-61
2021/08/29 02:36:07;;;;;;;8.73;3.50;;;16.40;99.90;;;;;;4372902;32;20258;-62
2021/08/29 02:38:41;;;;;;;9.17;3.80;;;16.40;99.90;;;;;;4367118;32;20174;-62
2021/08/29 02:41:08;;;;;;;10.53;4.53;;;16.40;99.90;;;;;;4370485;32;20595;-60
2021/08/29 02:43:36;;;;;;;6.87;3.17;;;16.40;99.90;;;;;;4381231;32;20175;-62
2021/08/29 02:46:04;;;;;;;6.63;3.27;;;16.50;99.90;;;;;;4386929;32;20686;-61
2021/08/29 02:48:35;;;;;;;9.27;4.10;;;16.40;99.90;;;;;;4379712;32;20203;-60
2021/08/29 02:51:06;;;;;;;5.60;3.43;;;16.40;99.90;;;;;;4373557;32;20277;-60
2021/08/29 02:53:48;;;;;;;6.60;3.10;;;16.40;99.90;;;;;;4376255;32;20604;-60
2021/08/29 02:56:19;;;;;;;9.03;3.43;;;16.40;99.90;;;;;;4375322;32;20223;-60
2021/08/29 02:58:49;;;;;;;6.87;3.57;;;16.40;99.90;;;;;;4358718;32;20697;-59
2021/08/29 03:01:19;;;;;;;9.97;3.60;;;16.40;99.90;;;;;;4373400;32;20209;-61
2021/08/29 03:03:47;;;;;;;10.97;3.90;;;16.30;99.90;;;;;;4373005;32;20251;-61
2021/08/29 03:06:18;;;;;;;6.50;3.70;;;16.30;99.90;;;;;;4377814;32;20700;-61
2021/08/29 03:08:52;;;;;;;12.67;3.33;;;16.20;99.90;;;;;;4375180;32;20212;-61
2021/08/29 03:11:29;;;;;;;8.47;3.37;;;16.20;99.90;;;;;;4377852;32;20181;-60
2021/08/29 03:13:57;;;;;;;7.93;3.50;;;16.20;99.90;;;;;;4380245;32;20608;-61
2021/08/29 03:16:33;;;;;;;5.60;3.20;;;16.10;99.90;;;;;;4378300;32;20211;-60
2021/08/29 03:19:13;;;;;;;8.20;4.20;;;16.10;99.90;;;;;;4374827;32;20231;-60
2021/08/29 03:21:57;;;;;;;9.53;3.50;;;16.00;99.90;;;;;;4376308;32;20585;-61
2021/08/29 03:24:26;;;;;;;5.63;3.40;;;16.00;99.90;;;;;;4378584;32;20175;-60
2021/08/29 03:26:58;;;;;;;9.63;4.27;;;16.00;99.90;;;;;;4379597;32;20540;-61
2021/08/29 03:29:27;;;;;;;8.33;3.83;;;15.90;99.90;;;;;;4370564;32;20283;-60
2021/08/29 03:31:54;;;;;;;10.90;4.17;;;15.90;99.90;;;;;;4372170;32;20159;-59
2021/08/29 03:34:23;;;;;;;5.17;3.60;;;15.90;99.90;;;;;;4388249;32;20662;-59
2021/08/29 03:36:51;;;;;;;9.60;4.50;;;15.90;99.90;;;;;;4388315;32;20232;-60
2021/08/29 03:39:20;;;;;;;6.53;3.87;;;15.80;99.90;;;;;;4388300;32;20223;-59
2021/08/29 03:41:47;;;;;;;4.70;3.10;;;15.90;99.90;;;;;;4386630;32;20208;-62
2021/08/29 03:44:15;;;;;;;5.93;3.33;;;15.90;99.90;;;;;;4385700;32;20164;-59
2021/08/29 03:46:45;;;;;;;7.67;3.43;;;15.90;99.90;;;;;;4383851;32;20211;-60
2021/08/29 03:49:12;;;;;;;9.53;3.57;;;15.90;99.90;;;;;;4384287;32;20305;-62
2021/08/29 03:51:41;;;;;;;8.53;3.97;;;15.90;99.90;;;;;;4386644;32;20194;-61
2021/08/29 03:54:12;;;;;;;8.73;3.53;;;15.90;99.90;;;;;;4386832;32;20194;-60
2021/08/29 03:56:39;;;;;;;7.20;3.50;;;15.90;99.90;;;;;;4383026;32;20216;-61
2021/08/29 03:59:07;;;;;;;8.30;3.50;;;15.90;99.90;;;;;;4384714;32;20222;-61
2021/08/29 04:01:34;;;;;;;8.60;3.53;;;15.90;99.90;;;;;;4383222;32;20164;-61
2021/08/29 04:04:01;;;;;;;6.47;3.63;;;15.80;99.90;;;;;;4386030;32;20160;-60
2021/08/29 04:06:34;;;;;;;9.87;3.63;;;15.80;99.90;;;;;;4385183;32;20592;-62
2021/08/29 04:09:05;;;;;;;9.53;4.50;;;15.80;99.90;;;;;;4384313;32;20179;-59
2021/08/29 04:11:34;;;;;;;9.20;3.37;;;15.80;99.90;;;;;;4385755;32;20211;-58
2021/08/29 04:14:02;;;;;;;11.17;4.40;;;15.80;99.90;;;;;;4384747;32;20617;-59
2021/08/29 04:16:29;;;;;;;6.17;3.77;;;15.80;99.90;;;;;;4382062;32;20638;-60
2021/08/29 04:18:59;;;;;;;9.83;3.60;;;15.80;99.90;;;;;;4385990;32;20231;-61
2021/08/29 04:21:26;;;;;;;9.90;3.73;;;15.80;99.90;;;;;;4381994;32;20200;-61
2021/08/29 04:23:54;;;;;;;8.80;3.40;;;15.80;99.90;;;;;;4382839;32;20194;-60
2021/08/29 04:26:21;;;;;;;8.87;3.47;;;15.90;99.90;;;;;;4381959;32;20155;-60
2021/08/29 04:28:50;;;;;;;6.23;3.30;;;15.90;99.90;;;;;;4389012;32;20599;-61
2021/08/29 04:31:23;;;;;;;8.13;3.40;;;15.90;99.90;;;;;;4385537;32;20207;-61
2021/08/29 04:33:51;;;;;;;18.53;5.33;;;15.90;99.90;;;;;;4385665;32;20155;-61
2021/08/29 04:36:18;;;;;;;9.00;4.17;;;15.90;99.90;;;;;;4384580;32;20187;-61
2021/08/29 04:38:45;;;;;;;7.67;3.40;;;15.90;99.90;;;;;;4386367;32;20176;-61
2021/08/29 04:41:12;;;;;;;6.40;3.13;;;15.90;99.90;;;;;;4385826;32;20591;-60
2021/08/29 04:43:38;;;;;;;7.33;3.07;;;15.90;99.90;;;;;;4385910;32;20831;-62
2021/08/29 04:46:07;;;;;;;8.20;3.47;;;16.00;99.90;;;;;;4383557;32;20531;-61
2021/08/29 04:48:33;;;;;;;9.57;4.00;;;15.90;99.90;;;;;;4385197;32;20187;-62
2021/08/29 04:51:00;;;;;;;9.60;3.60;;;15.90;99.90;;;;;;4385631;32;20216;-61
2021/08/29 04:53:29;;;;;;;10.30;3.27;;;15.90;99.90;;;;;;4385179;32;20253;-61
2021/08/29 04:55:59;;;;;;;9.80;3.13;;;15.90;99.90;;;;;;4383924;32;20233;-60
2021/08/29 04:58:26;;;;;;;8.40;3.43;;;16.00;99.90;;;;;;4385546;32;20172;-61
2021/08/29 05:00:53;;;;;;;15.10;3.80;;;16.00;99.90;;;;;;4387243;32;20219;-61
2021/08/29 05:03:21;;;;;;;6.30;2.87;;;16.00;99.90;;;;;;4383576;32;20186;-60
2021/08/29 05:05:48;;;;;;;9.67;3.47;;;15.90;99.90;;;;;;4386338;32;20164;-61
2021/08/29 05:08:15;;;;;;;12.73;3.77;;;16.00;99.90;;;;;;4387785;32;20610;-61
2021/08/29 05:10:42;;;;;;;10.83;3.50;;;16.10;99.90;;;;;;4386149;32;20492;-60
2021/08/29 05:13:08;;;;;;;10.77;4.10;;;16.00;99.90;;;;;;4382945;32;20195;-62
2021/08/29 05:15:38;;;;;;;5.93;3.00;;;16.00;99.90;;;;;;4387870;32;20152;-61
2021/08/29 05:18:05;;;;;;;7.17;2.60;;;16.00;99.90;;;;;;4387106;32;20613;-61
2021/08/29 05:20:33;;;;;;;10.00;2.93;;;16.00;99.90;;;;;;4387385;32;20192;-61
2021/08/29 05:23:00;;;;;;;8.93;3.40;;;16.10;99.90;;;;;;4380947;32;20239;-62
2021/08/29 05:25:27;;;;;;;11.20;3.73;;;16.10;99.90;;;;;;4382947;32;20160;-62
2021/08/29 05:27:54;;;;;;;14.60;3.90;;;16.10;99.90;;;;;;4382092;32;20172;-61
2021/08/29 05:30:20;;;;;;;11.27;3.37;;;16.00;99.90;;;;;;4383205;32;20184;-60
2021/08/29 05:32:47;;;;;;;11.63;3.27;;;16.00;99.90;;;;;;4385277;32;20208;-61
2021/08/29 05:35:14;;;;;;;11.13;3.77;;;15.90;99.90;;;;;;4384142;32;20219;-61
2021/08/29 05:37:42;;;;;;;11.80;3.60;;;15.90;99.90;;;;;;4386947;32;20183;-61
2021/08/29 05:40:10;;;;;;;11.00;3.40;;;15.90;99.90;;;;;;4382918;32;20548;-60
2021/08/29 05:42:37;;;;;;;11.90;3.47;;;15.80;99.90;;;;;;4383171;32;20216;-60
2021/08/29 05:45:05;;;;;;;13.70;3.10;;;15.80;99.90;;;;;;4385110;32;20243;-61
2021/08/29 05:47:34;;;;;;;11.97;2.80;;;15.90;99.90;;;;;;4380378;32;20177;-61
2021/08/29 05:50:01;;;;;;;17.63;4.90;;;16.00;99.90;;;;;;4384522;32;20648;-61
2021/08/29 05:52:28;;;;;;;16.67;4.90;;;16.00;99.90;;;;;;4383077;32;20518;-61
2021/08/29 05:54:56;;;;;;;15.23;3.40;;;16.10;99.90;;;;;;4385469;32;20176;-61
2021/08/29 05:57:23;;;;;;;11.23;3.80;;;16.10;99.90;;;;;;4384644;32;20187;-61
2021/08/29 05:59:50;;;;;;;10.47;3.00;;;16.10;99.90;;;;;;4383798;32;20219;-61
2021/08/29 06:02:17;;;;;;;10.53;3.53;;;16.10;99.90;;;;;;4388701;32;20171;-61
2021/08/29 06:04:44;;;;;;;9.77;3.47;;;16.10;99.90;;;;;;4382129;32;20477;-61
2021/08/29 06:07:13;;;;;;;17.63;3.73;;;16.20;99.90;;;;;;4383649;32;20622;-61
2021/08/29 06:09:40;;;;;;;7.67;3.17;;;16.20;99.90;;;;;;4381506;32;20479;-62
2021/08/29 06:12:08;;;;;;;15.60;3.70;;;16.30;99.90;;;;;;4386575;32;20180;-62
2021/08/29 06:14:35;;;;;;;11.33;2.80;;;16.20;99.90;;;;;;4378265;32;20199;-61
2021/08/29 06:17:02;;;;;;;11.67;3.43;;;16.30;99.90;;;;;;4385077;32;20192;-61
2021/08/29 06:19:29;;;;;;;15.20;3.30;;;16.20;99.90;;;;;;4385675;32;20633;-60
2021/08/29 06:21:56;;;;;;;10.50;2.60;;;16.10;99.90;;;;;;4385287;32;20183;-62
2021/08/29 06:24:22;;;;;;;14.03;4.03;;;16.10;99.90;;;;;;4385787;32;20237;-61
2021/08/29 06:26:49;;;;;;;10.53;3.40;;;16.20;99.90;;;;;;4381480;32;20227;-60
2021/08/29 06:29:18;;;;;;;11.57;3.40;;;16.30;99.90;;;;;;4381176;32;20180;-61
2021/08/29 06:31:45;;;;;;;10.23;3.40;;;16.40;99.90;;;;;;4382991;32;20250;-61
2021/08/29 06:34:12;;;;;;;12.43;3.13;;;16.40;99.90;;;;;;4384726;32;20584;-61
2021/08/29 06:36:39;;;;;;;10.43;3.83;;;16.40;99.90;;;;;;4384013;32;20164;-60
2021/08/29 06:39:08;;;;;;;12.27;3.27;;;16.40;99.90;;;;;;4385490;32;20153;-62
2021/08/29 06:41:34;;;;;;;8.23;3.90;;;16.40;99.90;;;;;;4378710;32;20188;-61
2021/08/29 06:44:01;;;;;;;12.07;3.50;;;16.40;99.90;;;;;;4387532;32;20220;-61
2021/08/29 06:46:30;;;;;;;10.97;3.80;;;16.40;99.90;;;;;;4386558;32;20234;-61
2021/08/29 06:48:56;;;;;;;14.80;4.27;;;16.30;99.90;;;;;;4387789;32;20534;-61
2021/08/29 06:51:24;;;;;;;12.77;4.37;;;16.50;99.90;;;;;;4383863;32;20215;-61
2021/08/29 06:53:51;;;;;;;10.77;3.50;;;16.60;99.90;;;;;;4386143;32;20190;-61
2021/08/29 06:56:18;;;;;;;11.80;3.03;;;16.60;99.90;;;;;;4385782;32;20180;-61
2021/08/29 06:58:47;;;;;;;11.50;4.83;;;16.50;99.90;;;;;;4385048;32;20175;-61
2021/08/29 07:01:14;;;;;;;6.23;2.87;;;16.60;99.90;;;;;;4385419;32;20295;-59
2021/08/29 07:03:42;;;;;;;12.40;3.50;;;16.60;99.90;;;;;;4385572;32;20245;-63
2021/08/29 07:06:09;;;;;;;10.90;3.43;;;16.60;99.90;;;;;;4385528;32;20591;-60
2021/08/29 07:08:36;;;;;;;13.10;2.57;;;16.70;99.90;;;;;;4388731;32;20175;-62
2021/08/29 07:11:09;;;;;;;13.13;3.27;;;16.60;99.90;;;;;;4384155;32;20273;-62
2021/08/29 07:13:35;;;;;;;8.27;2.87;;;16.70;99.90;;;;;;4374755;32;20215;-62
2021/08/29 07:16:02;;;;;;;14.87;4.33;;;16.90;99.90;;;;;;4381101;32;20599;-62
2021/08/29 07:18:29;;;;;;;11.37;2.97;;;17.00;99.90;;;;;;4384727;32;20251;-62
2021/08/29 07:20:58;;;;;;;12.03;3.67;;;17.00;99.90;;;;;;4383646;32;20176;-61
2021/08/29 07:23:25;;;;;;;8.33;3.00;;;17.10;99.90;;;;;;4377395;32;20208;-60
2021/08/29 07:25:51;;;;;;;10.73;2.43;;;17.20;99.90;;;;;;4381426;32;20607;-63
2021/08/29 07:28:18;;;;;;;9.80;2.63;;;17.10;99.90;;;;;;4385400;32;20190;-62
2021/08/29 07:30:45;;;;;;;11.93;3.33;;;17.10;99.90;;;;;;4386283;32;20179;-62
2021/08/29 07:33:12;;;;;;;10.37;2.83;;;17.10;99.90;;;;;;4384504;32;20230;-62
2021/08/29 07:35:39;;;;;;;14.73;3.27;;;17.20;99.90;;;;;;4383779;32;20181;-62
2021/08/29 07:38:10;;;;;;;14.10;3.53;;;17.00;99.90;;;;;;4385791;32;20212;-61
2021/08/29 07:40:37;;;;;;;10.30;3.07;;;17.10;99.90;;;;;;4379841;32;20166;-62
2021/08/29 07:43:06;;;;;;;12.67;2.63;;;17.10;99.90;;;;;;4384188;32;20167;-61
2021/08/29 07:45:33;;;;;;;9.20;3.10;;;17.20;99.90;;;;;;4386149;32;20235;-59
2021/08/29 07:48:00;;;;;;;14.93;3.93;;;17.30;99.90;;;;;;4382060;32;20227;-59
2021/08/29 07:50:26;;;;;;;9.47;3.23;;;17.40;99.90;;;;;;4385130;32;20190;-59
2021/08/29 07:52:56;;;;;;;11.67;2.97;;;17.30;99.90;;;;;;4386704;32;20549;-59
2021/08/29 07:55:24;;;;;;;10.10;3.20;;;17.20;99.90;;;;;;4387970;32;20236;-60
2021/08/29 07:57:54;;;;;;;14.07;4.10;;;17.20;99.90;;;;;;4381890;32;20234;-60
2021/08/29 08:00:21;;;;;;;14.37;4.17;;;17.30;99.90;;;;;;4385508;32;20223;-60
2021/08/29 08:02:48;;;;;;;17.30;4.47;;;17.40;99.90;;;;;;4383495;32;20203;-60
2021/08/29 08:05:14;;;;;;;13.33;3.13;;;17.40;99.90;;;;;;4387051;32;20599;-59
2021/08/29 08:07:44;;;;;;;13.20;3.40;;;17.20;99.90;;;;;;4382444;32;20854;-60
2021/08/29 08:10:11;;;;;;;16.03;3.87;;;17.30;99.90;;;;;;4385062;32;20243;-60
2021/08/29 08:12:40;;;;;;;12.70;3.77;;;17.30;99.90;;;;;;4384182;32;20634;-60
2021/08/29 08:15:08;;;;;;;11.53;3.37;;;17.30;99.90;;;;;;4389397;32;20155;-60
2021/08/29 08:17:35;;;;;;;13.73;3.23;;;17.50;99.90;;;;;;4385547;32;20580;-60
2021/08/29 08:20:02;;;;;;;10.70;3.13;;;17.60;99.90;;;;;;4384503;32;20245;-60
2021/08/29 08:22:29;;;;;;;8.40;3.47;;;17.60;99.90;;;;;;4385208;32;20162;-60
2021/08/29 08:24:56;;;;;;;9.40;3.70;;;17.70;99.90;;;;;;4383425;32;20176;-61
2021/08/29 08:27:24;;;;;;;10.10;3.13;;;17.60;99.90;;;;;;4383579;32;20254;-60
2021/08/29 08:29:52;;;;;;;13.43;3.57;;;17.40;99.90;;;;;;4382089;32;20500;-61
2021/08/29 08:32:19;;;;;;;12.20;3.50;;;17.40;99.90;;;;;;4385096;32;20630;-62
2021/08/29 08:34:46;;;;;;;12.13;3.30;;;17.30;99.90;;;;;;4384177;32;20172;-60
2021/08/29 08:37:13;;;;;;;12.73;2.90;;;17.30;99.90;;;;;;4382319;32;20187;-61
2021/08/29 08:39:40;;;;;;;12.93;3.67;;;17.40;99.90;;;;;;4384734;32;20209;-61
2021/08/29 08:42:07;;;;;;;14.13;3.30;;;17.40;99.90;;;;;;4383426;32;20166;-61
2021/08/29 08:44:34;;;;;;;14.20;4.13;;;17.30;99.90;;;;;;4377802;32;20526;-61
2021/08/29 08:47:06;;;;;;;10.77;3.37;;;17.10;99.90;;;;;;4383956;32;20172;-61
2021/08/29 08:49:35;;;;;;;13.57;3.77;;;17.10;99.90;;;;;;4382942;32;20167;-60
2021/08/29 08:52:07;;;;;;;11.53;3.30;;;16.90;99.90;;;;;;4384507;32;20211;-60
2021/08/29 08:54:34;;;;;;;11.93;3.70;;;16.90;99.90;;;;;;4384719;32;20299;-63
2021/08/29 08:57:01;;;;;;;10.83;3.47;;;16.80;99.90;;;;;;4384314;32;20175;-61
2021/08/29 08:59:33;;;;;;;13.00;3.23;;;16.90;99.90;;;;;;4382730;32;20454;-60
2021/08/29 09:02:00;;;;;;;10.30;3.33;;;17.10;99.90;;;;;;4384416;32;20607;-60
2021/08/29 09:04:28;;;;;;;17.57;5.30;;;17.20;99.90;;;;;;4382249;32;20178;-61
2021/08/29 09:06:55;;;;;;;15.77;4.03;;;17.20;99.90;;;;;;4384110;32;20285;-61
2021/08/29 09:09:21;;;;;;;12.70;4.30;;;17.20;99.90;;;;;;4383637;32;20174;-62
2021/08/29 09:11:48;;;;;;;9.43;3.13;;;17.20;99.90;;;;;;4381960;32;20198;-62
2021/08/29 09:14:15;;;;;;;13.43;3.10;;;17.20;99.90;;;;;;4383642;32;20152;-62
2021/08/29 09:16:51;;;;;;;14.00;4.50;;;17.10;99.90;;;;;;4384116;32;20176;-60
2021/08/29 09:19:19;;;;;;;14.50;4.43;;;17.10;99.90;;;;;;4382807;32;20608;-61
2021/08/29 09:21:47;;;;;;;17.20;4.23;;;17.00;99.90;;;;;;4384187;32;20149;-61
2021/08/29 09:24:15;;;;;;;9.93;3.60;;;16.90;99.90;;;;;;4384971;32;20562;-61
2021/08/29 09:26:44;;;;;;;12.83;3.80;;;16.90;99.90;;;;;;4384553;32;20619;-62
2021/08/29 09:29:20;;;;;;;14.17;3.90;;;16.90;99.90;;;;;;4386144;32;20242;-61
2021/08/29 09:31:48;;;;;;;8.37;3.30;;;17.10;99.90;;;;;;4384845;32;20160;-62
2021/08/29 09:34:19;;;;;;;17.47;3.83;;;17.00;99.90;;;;;;4378816;32;20224;-61
2021/08/29 09:36:50;;;;;;;15.00;4.50;;;17.00;99.90;;;;;;4377721;32;20226;-60
2021/08/29 09:39:18;;;;;;;13.13;3.47;;;17.00;99.90;;;;;;4382494;32;20483;-62
2021/08/29 09:41:46;;;;;;;14.90;3.67;;;17.00;99.90;;;;;;4384653;32;20465;-61
2021/08/29 09:44:14;;;;;;;15.10;3.67;;;17.10;99.90;;;;;;4386945;32;20168;-61
2021/08/29 09:46:55;;;;;;;13.07;3.47;;;17.20;99.90;;;;;;4382592;32;20223;-61
2021/08/29 09:49:26;;;;;;;11.50;4.00;;;17.20;99.90;;;;;;4385849;32;20209;-61
2021/08/29 09:51:57;;;;;;;13.10;4.20;;;17.20;99.90;;;;;;4380885;32;20620;-61
2021/08/29 09:54:31;;;;;;;14.97;3.30;;;17.30;99.90;;;;;;4386337;32;20245;-62
2021/08/29 09:56:59;;;;;;;12.57;3.47;;;17.50;99.90;;;;;;4386397;32;20174;-61
2021/08/29 09:59:44;;;;;;;14.47;3.63;;;17.50;99.90;;;;;;4388968;32;20212;-61
2021/08/29 10:02:12;;;;;;;9.30;3.37;;;17.40;99.90;;;;;;4386590;32;20522;-61
2021/08/29 10:04:39;;;;;;;13.57;3.63;;;17.50;99.90;;;;;;4383511;32;20224;-61
2021/08/29 10:07:12;;;;;;;8.57;2.60;;;17.50;99.90;;;;;;4385340;32;20231;-62
2021/08/29 10:09:40;;;;;;;11.03;3.00;;;17.40;99.90;;;;;;4378951;32;20171;-61
2021/08/29 10:12:08;;;;;;;11.60;3.70;;;17.40;99.90;;;;;;4384960;32;20199;-61
2021/08/29 10:14:36;;;;;;;13.30;3.60;;;17.30;99.90;;;;;;4388945;32;20156;-61
2021/08/29 10:17:05;;;;;;;17.07;4.43;;;17.40;99.90;;;;;;4385744;32;20569;-61
2021/08/29 10:19:33;;;;;;;13.50;3.53;;;17.20;99.90;;;;;;4387477;32;20191;-62
2021/08/29 10:22:01;;;;;;;20.10;3.53;;;17.10;99.90;;;;;;4387482;32;20222;-61
2021/08/29 10:24:32;;;;;;;15.73;4.10;;;16.80;99.90;;;;;;4386902;32;20152;-62
2021/08/29 10:27:04;;;;;;;10.73;3.50;;;16.70;99.90;;;;;;4391368;32;20252;-61
2021/08/29 10:29:39;;;;;;;12.30;3.47;;;16.50;99.90;;;;;;4388583;32;20160;-61
2021/08/29 10:32:18;;;;;;;13.63;4.20;;;16.60;99.90;;;;;;4386129;32;20150;-61
2021/08/29 10:34:45;;;;;;;17.83;4.50;;;16.70;99.90;;;;;;4388649;32;20647;-61
2021/08/29 10:37:12;;;;;;;10.23;3.43;;;16.90;99.90;;;;;;4388381;32;20163;-61
2021/08/29 10:39:41;;;;;;;16.77;3.77;;;17.00;99.90;;;;;;4389756;32;20588;-61
2021/08/29 10:42:08;;;;;;;13.33;3.80;;;17.10;99.90;;;;;;4390464;32;20530;-61
2021/08/29 10:44:35;;;;;;;17.87;4.00;;;17.00;99.90;;;;;;4381600;32;20274;-61
2021/08/29 10:47:03;;;;;;;10.53;3.83;;;16.80;99.90;;;;;;4389264;32;20199;-61
2021/08/29 10:49:31;;;;;;;15.53;4.37;;;16.70;99.90;;;;;;4386292;32;20160;-62
2021/08/29 10:51:58;;;;;;;11.10;4.07;;;16.90;99.90;;;;;;4391707;32;20179;-62
2021/08/29 10:54:25;;;;;;;13.20;3.23;;;17.00;99.90;;;;;;4389937;32;20208;-61
2021/08/29 10:56:53;;;;;;;12.17;3.57;;;17.20;99.90;;;;;;4388526;32;20175;-61
2021/08/29 10:59:28;;;;;;;10.40;3.37;;;17.30;99.90;;;;;;4388454;32;20224;-61
2021/08/29 11:02:11;;;;;;;11.90;3.50;;;17.20;99.90;;;;;;4384963;32;20211;-62
2021/08/29 11:04:48;;;;;;;12.60;3.40;;;17.10;99.90;;;;;;4379249;32;20188;-61
2021/08/29 11:07:43;;;;;;;12.70;3.80;;;17.20;99.90;;;;;;4387664;32;20219;-62
2021/08/29 11:10:11;;;;;;;13.77;3.90;;;17.00;99.90;;;;;;4389244;32;20576;-61
2021/08/29 11:12:40;;;;;;;13.53;4.07;;;16.90;99.90;;;;;;4389144;32;20163;-62
2021/08/29 11:15:10;;;;;;;14.20;4.57;;;16.70;99.90;;;;;;4388384;32;20178;-62
2021/08/29 11:17:39;;;;;;;12.43;3.73;;;16.70;99.90;;;;;;4388578;32;20247;-61
2021/08/29 11:20:17;;;;;;;11.20;3.90;;;16.70;99.90;;;;;;4389694;32;20246;-61
2021/08/29 11:22:46;;;;;;;12.00;5.17;;;16.70;99.90;;;;;;4386372;32;20204;-61
2021/08/29 11:25:22;;;;;;;22.57;4.57;;;16.80;99.90;;;;;;4386745;32;20195;-61
2021/08/29 11:28:02;;;;;;;15.30;4.27;;;16.80;99.90;;;;;;4386029;32;20246;-61
2021/08/29 11:30:50;;;;;;;8.63;3.17;;;16.90;99.90;;;;;;4388935;32;20278;-61
2021/08/29 11:33:25;;;;;;;16.30;4.03;;;16.90;99.90;;;;;;4384268;32;20247;-61
2021/08/29 11:35:53;;;;;;;19.23;4.67;;;17.00;99.90;;;;;;4387352;32;20194;-62
2021/08/29 11:38:32;;;;;;;18.23;4.87;;;17.00;99.90;;;;;;4386589;32;20480;-61
2021/08/29 11:41:01;;;;;;;13.77;3.63;;;17.00;99.90;;;;;;4385033;32;20160;-61
2021/08/29 11:43:35;;;;;;;12.87;4.27;;;17.00;99.90;;;;;;4386784;32;20266;-62
2021/08/29 11:46:09;;;;;;;15.63;3.87;;;16.90;99.90;;;;;;4388922;32;20153;-61
2021/08/29 11:48:35;;;;;;;16.83;4.10;;;16.90;99.90;;;;;;4380031;32;20625;-61
2021/08/29 11:51:04;;;;;;;15.37;4.93;;;17.00;99.90;;;;;;4384269;32;20289;-62
2021/08/29 11:53:43;;;;;;;12.63;4.33;;;16.70;99.90;;;;;;4387220;32;20647;-61
2021/08/29 11:56:10;;;;;;;18.83;4.93;;;16.80;99.90;;;;;;4386192;32;20524;-62
2021/08/29 11:58:38;;;;;;;14.60;4.70;;;16.70;99.90;;;;;;4385048;32;20175;-62
2021/08/29 12:01:06;;;;;;;15.90;4.57;;;16.60;99.90;;;;;;4381365;32;20211;-62
2021/08/29 12:03:34;;;;;;;15.37;4.60;;;16.70;99.90;;;;;;4383407;32;20596;-62
2021/08/29 12:06:07;;;;;;;13.20;4.43;;;16.70;99.90;;;;;;4388476;32;20180;-62
2021/08/29 12:08:42;;;;;;;17.07;5.23;;;16.90;99.90;;;;;;4388074;32;20542;-61
2021/08/29 12:11:11;;;;;;;14.37;5.23;;;16.80;99.90;;;;;;4389379;32;20539;-61
2021/08/29 12:13:39;;;;;;;14.33;4.80;;;16.80;99.90;;;;;;4384705;32;20660;-62
2021/08/29 12:16:07;;;;;;;19.93;5.03;;;16.70;99.90;;;;;;4385259;32;20241;-61
2021/08/29 12:18:37;;;;;;;7.10;3.90;;;16.70;99.90;;;;;;4381791;32;20215;-61
2021/08/29 12:21:06;;;;;;;11.43;4.50;;;16.70;99.90;;;;;;4388132;32;20165;-62
2021/08/29 12:23:35;;;;;;;12.37;4.03;;;16.60;99.90;;;;;;4387764;32;20197;-62
2021/08/29 12:26:03;;;;;;;8.20;4.43;;;16.70;99.90;;;;;;4386785;32;20209;-62
2021/08/29 12:28:30;;;;;;;14.00;4.80;;;16.60;99.90;;;;;;4381471;32;20222;-61
2021/08/29 12:31:00;;;;;;;11.60;3.40;;;16.50;99.90;;;;;;4388256;32;20176;-61
2021/08/29 12:33:29;;;;;;;7.83;4.17;;;16.50;99.90;;;;;;4388768;32;20182;-61
2021/08/29 12:35:57;;;;;;;6.83;3.80;;;16.40;99.90;;;;;;4386056;32;20250;-61
2021/08/29 12:38:25;;;;;;;9.47;3.60;;;16.50;99.90;;;;;;4387407;32;20199;-62
2021/08/29 12:40:53;;;;;;;11.30;4.40;;;16.60;99.90;;;;;;4387484;32;20186;-62
2021/08/29 12:43:20;;;;;;;9.50;2.97;;;16.70;99.90;;;;;;4385739;32;20208;-62
2021/08/29 12:45:48;;;;;;;7.77;3.73;;;16.90;99.90;;;;;;4386563;32;20156;-62
2021/08/29 12:48:17;;;;;;;10.23;3.90;;;17.20;99.90;;;;;;4384014;32;20740;-62
2021/08/29 12:50:49;;;;;;;12.07;3.67;;;17.40;99.90;;;;;;4386646;32;20217;-62
2021/08/29 12:53:19;;;;;;;9.53;3.67;;;17.20;99.90;;;;;;4384798;32;20275;-62
2021/08/29 12:55:50;;;;;;;9.77;4.03;;;17.10;99.90;;;;;;4388276;32;20207;-61